sensor_id;sensor_type;location;lat;lon;timestamp;pressure;altitude;pressure_sealevel;temperature;humidity
73171;BME280;61381;50.118;19.962;2022-12-20T00:04:46;99492.63;;;-4.64;100.00
73171;BME280;61381;50.118;19.962;2022-12-20T00:09:49;99496.22;;;-4.57;100.00
73171;BME280;61381;50.118;19.962;2022-12-20T00:14:50;99499.47;;;-4.63;100.00
73171;BME280;61381;50.118;19.962;2022-12-20T00:19:51;99496.41;;;-4.50;100.00
73171;BME280;61381;50.118;19.962;2022-12-20T00:24:53;99496.72;;;-4.61;100.00
73171;BME280;61381;50.118;19.962;2022-12-20T00:29:54;99500.63;;;-4.66;100.00
73171;BME280;61381;50.118;19.962;2022-12-20T00:34:55;99497.50;;;-4.69;100.00
73171;BME280;61381;50.118;19.962;2022-12-20T00:39:57;99506.69;;;-4.65;100.00
73171;BME280;61381;50.118;19.962;2022-12-20T00:44:58;99511.53;;;-4.78;100.00
73171;BME280;61381;50.118;19.962;2022-12-20T00:49:59;99511.22;;;-4.67;100.00
73171;BME280;61381;50.118;19.962;2022-12-20T00:55:01;99505.34;;;-4.69;100.00
73171;BME280;61381;50.118;19.962;2022-12-20T01:00:03;99495.53;;;-4.67;100.00
73171;BME280;61381;50.118;19.962;2022-12-20T01:05:05;99499.00;;;-4.58;100.00
73171;BME280;61381;50.118;19.962;2022-12-20T01:10:08;99495.94;;;-4.45;100.00
73171;BME280;61381;50.118;19.962;2022-12-20T01:15:10;99488.25;;;-4.39;100.00
73171;BME280;61381;50.118;19.962;2022-12-20T01:20:12;99477.97;;;-4.24;100.00
73171;BME280;61381;50.118;19.962;2022-12-20T01:25:14;99483.84;;;-4.05;100.00
73171;BME280;61381;50.118;19.962;2022-12-20T01:30:15;99466.47;;;-3.98;100.00
73171;BME280;61381;50.118;19.962;2022-12-20T01:35:16;99472.34;;;-3.88;100.00
73171;BME280;61381;50.118;19.962;2022-12-20T01:40:19;99463.69;;;-3.88;100.00
73171;BME280;61381;50.118;19.962;2022-12-20T01:45:24;99452.38;;;-3.72;100.00
73171;BME280;61381;50.118;19.962;2022-12-20T01:50:26;99450.25;;;-3.69;100.00
73171;BME280;61381;50.118;19.962;2022-12-20T01:55:29;99443.34;;;-3.62;100.00
73171;BME280;61381;50.118;19.962;2022-12-20T02:00:30;99451.47;;;-3.48;100.00
73171;BME280;61381;50.118;19.962;2022-12-20T02:05:33;99448.81;;;-3.40;100.00
73171;BME280;61381;50.118;19.962;2022-12-20T02:10:46;99476.38;;;-3.52;100.00
73171;BME280;61381;50.118;19.962;2022-12-20T02:15:53;99465.41;;;-3.56;100.00
73171;BME280;61381;50.118;19.962;2022-12-20T02:21:22;99447.91;;;-3.55;100.00
73171;BME280;61381;50.118;19.962;2022-12-20T02:32:02;99429.00;;;-3.34;100.00
73171;BME280;61381;50.118;19.962;2022-12-20T02:37:04;99429.16;;;-3.28;100.00
73171;BME280;61381;50.118;19.962;2022-12-20T02:42:07;99425.88;;;-3.30;100.00
73171;BME280;61381;50.118;19.962;2022-12-20T02:47:13;99416.06;;;-3.28;100.00
73171;BME280;61381;50.118;19.962;2022-12-20T02:52:19;99417.13;;;-3.14;100.00
73171;BME280;61381;50.118;19.962;2022-12-20T02:57:24;99404.66;;;-3.12;100.00
73171;BME280;61381;50.118;19.962;2022-12-20T03:02:29;99406.06;;;-3.01;100.00
73171;BME280;61381;50.118;19.962;2022-12-20T03:07:32;99418.13;;;-2.92;100.00
73171;BME280;61381;50.118;19.962;2022-12-20T03:12:33;99418.06;;;-3.07;100.00
73171;BME280;61381;50.118;19.962;2022-12-20T03:17:36;99410.78;;;-2.96;100.00
73171;BME280;61381;50.118;19.962;2022-12-20T03:22:37;99395.75;;;-3.02;100.00
73171;BME280;61381;50.118;19.962;2022-12-20T03:27:38;99399.16;;;-2.94;100.00
73171;BME280;61381;50.118;19.962;2022-12-20T03:32:40;99385.69;;;-2.91;100.00
73171;BME280;61381;50.118;19.962;2022-12-20T03:37:41;99400.56;;;-2.83;100.00
73171;BME280;61381;50.118;19.962;2022-12-20T03:42:42;99411.75;;;-2.89;100.00
73171;BME280;61381;50.118;19.962;2022-12-20T03:47:45;99394.91;;;-2.72;100.00
73171;BME280;61381;50.118;19.962;2022-12-20T03:52:45;99400.06;;;-2.87;100.00
73171;BME280;61381;50.118;19.962;2022-12-20T03:57:46;99396.19;;;-2.91;100.00
73171;BME280;61381;50.118;19.962;2022-12-20T04:02:49;99379.94;;;-2.86;100.00
73171;BME280;61381;50.118;19.962;2022-12-20T04:07:50;99392.34;;;-2.80;100.00
73171;BME280;61381;50.118;19.962;2022-12-20T04:12:50;99384.59;;;-2.96;100.00
73171;BME280;61381;50.118;19.962;2022-12-20T04:17:53;99376.75;;;-3.28;100.00
73171;BME280;61381;50.118;19.962;2022-12-20T04:22:54;99363.06;;;-3.38;100.00
73171;BME280;61381;50.118;19.962;2022-12-20T04:27:55;99365.13;;;-3.56;100.00
73171;BME280;61381;50.118;19.962;2022-12-20T04:32:57;99357.50;;;-3.74;100.00
73171;BME280;61381;50.118;19.962;2022-12-20T04:37:58;99357.38;;;-3.89;100.00
73171;BME280;61381;50.118;19.962;2022-12-20T04:42:59;99355.75;;;-3.90;100.00
73171;BME280;61381;50.118;19.962;2022-12-20T04:48:01;99353.03;;;-4.05;100.00
73171;BME280;61381;50.118;19.962;2022-12-20T04:53:02;99360.22;;;-4.16;100.00
73171;BME280;61381;50.118;19.962;2022-12-20T04:58:03;99355.81;;;-4.15;100.00
73171;BME280;61381;50.118;19.962;2022-12-20T05:03:05;99356.91;;;-4.01;100.00
73171;BME280;61381;50.118;19.962;2022-12-20T05:08:06;99349.59;;;-4.14;100.00
73171;BME280;61381;50.118;19.962;2022-12-20T05:13:07;99341.13;;;-4.16;100.00
73171;BME280;61381;50.118;19.962;2022-12-20T05:18:09;99343.56;;;-4.15;100.00
73171;BME280;61381;50.118;19.962;2022-12-20T05:23:10;99342.81;;;-3.84;100.00
73171;BME280;61381;50.118;19.962;2022-12-20T05:28:11;99346.47;;;-3.30;100.00
73171;BME280;61381;50.118;19.962;2022-12-20T05:33:14;99348.75;;;-3.04;100.00
73171;BME280;61381;50.118;19.962;2022-12-20T05:38:15;99338.22;;;-2.96;100.00
73171;BME280;61381;50.118;19.962;2022-12-20T05:43:16;99332.28;;;-2.90;100.00
73171;BME280;61381;50.118;19.962;2022-12-20T05:48:19;99342.94;;;-2.91;100.00
73171;BME280;61381;50.118;19.962;2022-12-20T05:53:20;99337.81;;;-2.84;100.00
73171;BME280;61381;50.118;19.962;2022-12-20T05:58:21;99335.56;;;-2.88;100.00
73171;BME280;61381;50.118;19.962;2022-12-20T06:03:23;99341.00;;;-2.74;100.00
73171;BME280;61381;50.118;19.962;2022-12-20T06:08:24;99332.22;;;-2.81;100.00
73171;BME280;61381;50.118;19.962;2022-12-20T06:13:25;99328.19;;;-2.69;100.00
73171;BME280;61381;50.118;19.962;2022-12-20T06:18:28;99327.69;;;-2.73;100.00
73171;BME280;61381;50.118;19.962;2022-12-20T06:23:28;99323.50;;;-2.59;100.00
73171;BME280;61381;50.118;19.962;2022-12-20T06:28:29;99321.34;;;-2.55;100.00
73171;BME280;61381;50.118;19.962;2022-12-20T06:33:32;99317.69;;;-2.69;100.00
73171;BME280;61381;50.118;19.962;2022-12-20T06:38:32;99328.06;;;-2.76;100.00
73171;BME280;61381;50.118;19.962;2022-12-20T06:43:33;99328.41;;;-2.79;100.00
73171;BME280;61381;50.118;19.962;2022-12-20T06:48:36;99338.91;;;-2.79;100.00
73171;BME280;61381;50.118;19.962;2022-12-20T06:53:37;99345.59;;;-2.76;100.00
73171;BME280;61381;50.118;19.962;2022-12-20T06:58:38;99337.91;;;-2.78;100.00
73171;BME280;61381;50.118;19.962;2022-12-20T07:03:40;99343.38;;;-2.64;100.00
73171;BME280;61381;50.118;19.962;2022-12-20T07:08:41;99345.47;;;-2.60;100.00
73171;BME280;61381;50.118;19.962;2022-12-20T07:13:42;99337.34;;;-2.50;100.00
73171;BME280;61381;50.118;19.962;2022-12-20T07:18:48;99329.41;;;-2.42;100.00
73171;BME280;61381;50.118;19.962;2022-12-20T07:23:49;99327.16;;;-2.45;100.00
73171;BME280;61381;50.118;19.962;2022-12-20T07:28:50;99337.00;;;-2.47;100.00
73171;BME280;61381;50.118;19.962;2022-12-20T07:33:52;99332.66;;;-2.40;100.00
73171;BME280;61381;50.118;19.962;2022-12-20T07:38:53;99328.97;;;-2.16;100.00
73171;BME280;61381;50.118;19.962;2022-12-20T07:43:54;99331.59;;;-2.01;100.00
73171;BME280;61381;50.118;19.962;2022-12-20T07:48:56;99327.91;;;-1.91;100.00
73171;BME280;61381;50.118;19.962;2022-12-20T07:54:00;99324.06;;;-1.74;100.00
73171;BME280;61381;50.118;19.962;2022-12-20T07:59:02;99328.22;;;-1.65;100.00
73171;BME280;61381;50.118;19.962;2022-12-20T08:04:09;99331.78;;;-1.36;100.00
73171;BME280;61381;50.118;19.962;2022-12-20T08:09:11;99320.50;;;-0.93;100.00
73171;BME280;61381;50.118;19.962;2022-12-20T08:14:13;99326.91;;;-0.74;100.00
73171;BME280;61381;50.118;19.962;2022-12-20T08:19:16;99329.47;;;-0.59;100.00
73171;BME280;61381;50.118;19.962;2022-12-20T08:24:17;99318.50;;;-0.34;100.00
73171;BME280;61381;50.118;19.962;2022-12-20T08:29:18;99325.66;;;-0.22;100.00
73171;BME280;61381;50.118;19.962;2022-12-20T08:34:21;99316.78;;;-0.14;100.00
73171;BME280;61381;50.118;19.962;2022-12-20T08:39:21;99318.06;;;-0.03;100.00
73171;BME280;61381;50.118;19.962;2022-12-20T08:44:22;99304.88;;;-0.10;100.00
73171;BME280;61381;50.118;19.962;2022-12-20T08:49:25;99314.97;;;0.22;100.00
73171;BME280;61381;50.118;19.962;2022-12-20T08:54:26;99315.41;;;0.32;99.06
73171;BME280;61381;50.118;19.962;2022-12-20T08:59:27;99297.94;;;0.17;98.49
73171;BME280;61381;50.118;19.962;2022-12-20T09:04:29;99309.13;;;0.33;99.75
73171;BME280;61381;50.118;19.962;2022-12-20T09:09:30;99310.13;;;0.25;99.38
73171;BME280;61381;50.118;19.962;2022-12-20T09:14:31;99302.06;;;0.40;100.00
73171;BME280;61381;50.118;19.962;2022-12-20T09:19:33;99310.78;;;0.41;97.17
73171;BME280;61381;50.118;19.962;2022-12-20T09:24:36;99300.44;;;0.46;98.05
73171;BME280;61381;50.118;19.962;2022-12-20T09:29:37;99292.19;;;0.56;96.90
73171;BME280;61381;50.118;19.962;2022-12-20T09:34:39;99288.59;;;0.90;95.73
73171;BME280;61381;50.118;19.962;2022-12-20T09:39:40;99278.66;;;1.19;96.21
73171;BME280;61381;50.118;19.962;2022-12-20T09:44:41;99262.44;;;1.22;93.00
73171;BME280;61381;50.118;19.962;2022-12-20T09:49:46;99269.13;;;1.31;93.35
73171;BME280;61381;50.118;19.962;2022-12-20T09:54:55;99272.56;;;1.45;94.10
73171;BME280;61381;50.118;19.962;2022-12-20T10:00:01;99264.22;;;1.62;93.62
73171;BME280;61381;50.118;19.962;2022-12-20T10:05:04;99284.53;;;1.54;93.58
73171;BME280;61381;50.118;19.962;2022-12-20T10:10:39;99283.28;;;1.70;94.65
73171;BME280;61381;50.118;19.962;2022-12-20T10:15:45;99287.31;;;1.86;92.10
73171;BME280;61381;50.118;19.962;2022-12-20T10:20:56;99264.13;;;1.95;90.34
73171;BME280;61381;50.118;19.962;2022-12-20T10:25:58;99259.31;;;2.30;91.02
73171;BME280;61381;50.118;19.962;2022-12-20T10:31:02;99243.28;;;2.57;90.21
73171;BME280;61381;50.118;19.962;2022-12-20T10:36:20;99219.84;;;2.29;91.37
73171;BME280;61381;50.118;19.962;2022-12-20T10:41:24;99195.03;;;2.62;91.19
73171;BME280;61381;50.118;19.962;2022-12-20T10:46:34;99179.75;;;2.89;88.50
73171;BME280;61381;50.118;19.962;2022-12-20T10:51:50;99175.13;;;3.10;88.29
73171;BME280;61381;50.118;19.962;2022-12-20T10:56:56;99169.41;;;2.88;86.59
73171;BME280;61381;50.118;19.962;2022-12-20T11:01:58;99167.41;;;2.83;88.83
73171;BME280;61381;50.118;19.962;2022-12-20T11:07:02;99166.63;;;2.50;89.74
73171;BME280;61381;50.118;19.962;2022-12-20T11:12:06;99165.63;;;2.20;92.62
73171;BME280;61381;50.118;19.962;2022-12-20T11:17:22;99162.84;;;2.40;94.46
73171;BME280;61381;50.118;19.962;2022-12-20T11:22:37;99181.06;;;2.23;92.69
73171;BME280;61381;50.118;19.962;2022-12-20T11:27:45;99156.88;;;1.81;94.98
73171;BME280;61381;50.118;19.962;2022-12-20T11:33:10;99172.69;;;1.35;96.22
73171;BME280;61381;50.118;19.962;2022-12-20T11:38:24;99174.09;;;1.31;97.41
73171;BME280;61381;50.118;19.962;2022-12-20T11:43:39;99164.56;;;1.23;97.91
73171;BME280;61381;50.118;19.962;2022-12-20T11:48:59;99151.34;;;1.37;97.64
73171;BME280;61381;50.118;19.962;2022-12-20T11:54:09;99115.78;;;1.46;99.79
73171;BME280;61381;50.118;19.962;2022-12-20T11:59:19;99123.56;;;1.28;99.61
73171;BME280;61381;50.118;19.962;2022-12-20T12:04:24;99119.22;;;1.53;100.00
73171;BME280;61381;50.118;19.962;2022-12-20T12:09:31;99122.19;;;1.70;100.00
73171;BME280;61381;50.118;19.962;2022-12-20T12:14:43;99128.31;;;1.57;100.00
73171;BME280;61381;50.118;19.962;2022-12-20T12:19:48;99124.63;;;1.65;100.00
73171;BME280;61381;50.118;19.962;2022-12-20T12:24:55;99108.19;;;1.63;99.94
73171;BME280;61381;50.118;19.962;2022-12-20T12:29:57;99115.75;;;1.91;100.00
73171;BME280;61381;50.118;19.962;2022-12-20T12:35:04;99110.38;;;2.11;99.68
73171;BME280;61381;50.118;19.962;2022-12-20T12:40:31;99095.41;;;2.30;98.67
73171;BME280;61381;50.118;19.962;2022-12-20T12:45:40;99099.75;;;1.86;99.80
73171;BME280;61381;50.118;19.962;2022-12-20T12:50:45;99098.44;;;1.64;100.00
73171;BME280;61381;50.118;19.962;2022-12-20T12:55:49;99102.72;;;1.65;100.00
73171;BME280;61381;50.118;19.962;2022-12-20T13:00:52;99112.47;;;1.64;100.00
73171;BME280;61381;50.118;19.962;2022-12-20T13:05:53;99119.25;;;1.85;100.00
73171;BME280;61381;50.118;19.962;2022-12-20T13:10:58;99108.00;;;1.65;100.00
73171;BME280;61381;50.118;19.962;2022-12-20T13:16:08;99104.66;;;1.37;100.00
73171;BME280;61381;50.118;19.962;2022-12-20T13:21:35;99090.72;;;1.17;100.00
73171;BME280;61381;50.118;19.962;2022-12-20T13:26:51;99097.44;;;1.06;100.00
73171;BME280;61381;50.118;19.962;2022-12-20T13:31:52;99092.78;;;0.95;100.00
73171;BME280;61381;50.118;19.962;2022-12-20T13:36:57;99084.94;;;0.81;100.00
73171;BME280;61381;50.118;19.962;2022-12-20T13:42:19;99081.06;;;0.77;100.00
73171;BME280;61381;50.118;19.962;2022-12-20T13:47:35;99074.78;;;0.71;100.00
73171;BME280;61381;50.118;19.962;2022-12-20T13:52:41;99085.13;;;0.60;100.00
73171;BME280;61381;50.118;19.962;2022-12-20T13:57:44;99086.75;;;0.74;100.00
73171;BME280;61381;50.118;19.962;2022-12-20T14:02:45;99095.28;;;0.56;100.00
73171;BME280;61381;50.118;19.962;2022-12-20T14:07:50;99103.19;;;0.49;100.00
73171;BME280;61381;50.118;19.962;2022-12-20T14:12:57;99095.69;;;0.60;100.00
73171;BME280;61381;50.118;19.962;2022-12-20T14:18:04;99087.19;;;0.51;100.00
73171;BME280;61381;50.118;19.962;2022-12-20T14:23:11;99098.94;;;0.35;100.00
73171;BME280;61381;50.118;19.962;2022-12-20T14:28:24;99108.06;;;0.32;100.00
73171;BME280;61381;50.118;19.962;2022-12-20T14:33:30;99099.72;;;0.29;100.00
73171;BME280;61381;50.118;19.962;2022-12-20T14:38:33;99095.88;;;0.18;100.00
73171;BME280;61381;50.118;19.962;2022-12-20T14:43:36;99106.41;;;0.11;100.00
73171;BME280;61381;50.118;19.962;2022-12-20T14:48:36;99106.41;;;0.05;100.00
73171;BME280;61381;50.118;19.962;2022-12-20T14:53:38;99111.44;;;-0.07;100.00
73171;BME280;61381;50.118;19.962;2022-12-20T14:58:41;99113.66;;;-0.17;100.00
73171;BME280;61381;50.118;19.962;2022-12-20T15:03:48;99124.00;;;-0.09;100.00
73171;BME280;61381;50.118;19.962;2022-12-20T15:08:49;99109.81;;;-0.02;100.00
73171;BME280;61381;50.118;19.962;2022-12-20T15:13:53;99103.56;;;-0.01;100.00
73171;BME280;61381;50.118;19.962;2022-12-20T15:18:56;99098.88;;;-0.12;100.00
73171;BME280;61381;50.118;19.962;2022-12-20T15:23:59;99099.88;;;-0.20;100.00
73171;BME280;61381;50.118;19.962;2022-12-20T15:29:02;99095.00;;;-0.16;100.00
73171;BME280;61381;50.118;19.962;2022-12-20T15:34:06;99092.97;;;-0.27;100.00
73171;BME280;61381;50.118;19.962;2022-12-20T15:39:12;99103.91;;;-0.17;100.00
73171;BME280;61381;50.118;19.962;2022-12-20T15:44:16;99094.78;;;-0.28;100.00
73171;BME280;61381;50.118;19.962;2022-12-20T15:49:20;99095.56;;;-0.34;100.00
73171;BME280;61381;50.118;19.962;2022-12-20T15:54:23;99093.72;;;-0.47;100.00
73171;BME280;61381;50.118;19.962;2022-12-20T15:59:26;99101.53;;;-0.67;100.00
73171;BME280;61381;50.118;19.962;2022-12-20T16:04:27;99103.34;;;-0.67;100.00
73171;BME280;61381;50.118;19.962;2022-12-20T16:09:28;99096.00;;;-0.30;100.00
73171;BME280;61381;50.118;19.962;2022-12-20T16:14:30;99091.09;;;-0.40;100.00
73171;BME280;61381;50.118;19.962;2022-12-20T16:19:31;99080.75;;;-0.48;100.00
73171;BME280;61381;50.118;19.962;2022-12-20T16:24:32;99060.94;;;-0.38;100.00
73171;BME280;61381;50.118;19.962;2022-12-20T16:29:34;99062.00;;;-0.32;100.00
73171;BME280;61381;50.118;19.962;2022-12-20T16:34:35;99066.47;;;-0.19;100.00
73171;BME280;61381;50.118;19.962;2022-12-20T16:39:36;99081.41;;;-0.26;100.00
73171;BME280;61381;50.118;19.962;2022-12-20T16:44:39;99080.59;;;-0.33;100.00
73171;BME280;61381;50.118;19.962;2022-12-20T16:49:39;99070.09;;;-0.33;100.00
73171;BME280;61381;50.118;19.962;2022-12-20T16:54:40;99071.03;;;-0.55;100.00
73171;BME280;61381;50.118;19.962;2022-12-20T16:59:43;99068.78;;;-0.64;100.00
73171;BME280;61381;50.118;19.962;2022-12-20T17:04:44;99055.56;;;-0.71;100.00
73171;BME280;61381;50.118;19.962;2022-12-20T17:09:45;99057.31;;;-0.92;100.00
73171;BME280;61381;50.118;19.962;2022-12-20T17:14:47;99060.84;;;-1.13;100.00
73171;BME280;61381;50.118;19.962;2022-12-20T17:19:48;99053.47;;;-1.31;100.00
73171;BME280;61381;50.118;19.962;2022-12-20T17:24:49;99045.47;;;-1.44;100.00
73171;BME280;61381;50.118;19.962;2022-12-20T17:29:51;99037.75;;;-1.52;100.00
73171;BME280;61381;50.118;19.962;2022-12-20T17:34:52;99043.81;;;-1.52;100.00
73171;BME280;61381;50.118;19.962;2022-12-20T17:39:53;99039.63;;;-1.46;100.00
73171;BME280;61381;50.118;19.962;2022-12-20T17:44:56;99037.59;;;-1.44;100.00
73171;BME280;61381;50.118;19.962;2022-12-20T17:49:57;99026.31;;;-1.38;100.00
73171;BME280;61381;50.118;19.962;2022-12-20T17:54:57;99014.69;;;-1.22;100.00
73171;BME280;61381;50.118;19.962;2022-12-20T18:00:00;99014.78;;;-1.09;100.00
73171;BME280;61381;50.118;19.962;2022-12-20T18:05:01;99017.88;;;-0.92;100.00
73171;BME280;61381;50.118;19.962;2022-12-20T18:10:02;99027.97;;;-0.95;100.00
73171;BME280;61381;50.118;19.962;2022-12-20T18:15:06;99005.31;;;-0.96;100.00
73171;BME280;61381;50.118;19.962;2022-12-20T18:20:08;99000.28;;;-0.84;100.00
73171;BME280;61381;50.118;19.962;2022-12-20T18:25:09;99004.94;;;-0.86;100.00
73171;BME280;61381;50.118;19.962;2022-12-20T18:30:12;98996.84;;;-0.85;100.00
73171;BME280;61381;50.118;19.962;2022-12-20T18:35:13;98999.69;;;-0.86;100.00
73171;BME280;61381;50.118;19.962;2022-12-20T18:40:15;98992.25;;;-0.76;100.00
73171;BME280;61381;50.118;19.962;2022-12-20T18:45:17;98987.03;;;-0.63;100.00
73171;BME280;61381;50.118;19.962;2022-12-20T18:50:18;98992.69;;;-0.59;100.00
73171;BME280;61381;50.118;19.962;2022-12-20T18:55:19;98993.09;;;-0.56;100.00
73171;BME280;61381;50.118;19.962;2022-12-20T19:00:21;98969.84;;;-0.45;100.00
73171;BME280;61381;50.118;19.962;2022-12-20T19:05:22;98973.09;;;-0.37;100.00
73171;BME280;61381;50.118;19.962;2022-12-20T19:10:24;98972.66;;;-0.40;100.00
73171;BME280;61381;50.118;19.962;2022-12-20T19:15:26;98972.06;;;-0.42;100.00
73171;BME280;61381;50.118;19.962;2022-12-20T19:20:27;98961.16;;;-0.46;100.00
73171;BME280;61381;50.118;19.962;2022-12-20T19:25:28;98945.94;;;-0.44;100.00
73171;BME280;61381;50.118;19.962;2022-12-20T19:30:33;98944.94;;;-0.36;100.00
73171;BME280;61381;50.118;19.962;2022-12-20T19:35:34;98941.72;;;-0.38;100.00
73171;BME280;61381;50.118;19.962;2022-12-20T19:40:35;98954.69;;;-0.37;100.00
73171;BME280;61381;50.118;19.962;2022-12-20T19:45:37;98960.53;;;-0.41;100.00
73171;BME280;61381;50.118;19.962;2022-12-20T19:50:38;98960.53;;;-0.41;100.00
73171;BME280;61381;50.118;19.962;2022-12-20T19:55:39;98970.84;;;-0.46;100.00
73171;BME280;61381;50.118;19.962;2022-12-20T20:00:45;98964.16;;;-0.42;100.00
73171;BME280;61381;50.118;19.962;2022-12-20T20:05:47;98961.53;;;-0.49;100.00
73171;BME280;61381;50.118;19.962;2022-12-20T20:10:51;98957.06;;;-0.62;100.00
73171;BME280;61381;50.118;19.962;2022-12-20T20:15:55;98955.03;;;-0.66;100.00
73171;BME280;61381;50.118;19.962;2022-12-20T20:20:56;98958.84;;;-0.69;100.00
73171;BME280;61381;50.118;19.962;2022-12-20T20:25:57;98950.75;;;-0.74;100.00
73171;BME280;61381;50.118;19.962;2022-12-20T20:31:00;98936.38;;;-0.78;100.00
73171;BME280;61381;50.118;19.962;2022-12-20T20:36:04;98940.41;;;-0.89;100.00
73171;BME280;61381;50.118;19.962;2022-12-20T20:41:05;98933.09;;;-1.00;100.00
73171;BME280;61381;50.118;19.962;2022-12-20T20:46:09;98942.97;;;-1.09;100.00
73171;BME280;61381;50.118;19.962;2022-12-20T20:51:11;98937.94;;;-1.04;100.00
73171;BME280;61381;50.118;19.962;2022-12-20T20:56:12;98932.91;;;-0.99;100.00
73171;BME280;61381;50.118;19.962;2022-12-20T21:01:14;98937.88;;;-1.24;100.00
73171;BME280;61381;50.118;19.962;2022-12-20T21:06:15;98930.91;;;-1.45;100.00
73171;BME280;61381;50.118;19.962;2022-12-20T21:11:16;98931.00;;;-1.67;100.00
73171;BME280;61381;50.118;19.962;2022-12-20T21:16:19;98922.00;;;-1.86;100.00
73171;BME280;61381;50.118;19.962;2022-12-20T21:21:20;98917.91;;;-1.95;100.00
73171;BME280;61381;50.118;19.962;2022-12-20T21:26:22;98910.13;;;-2.10;100.00
73171;BME280;61381;50.118;19.962;2022-12-20T21:31:25;98914.03;;;-2.27;100.00
73171;BME280;61381;50.118;19.962;2022-12-20T21:36:26;98899.06;;;-2.34;100.00
73171;BME280;61381;50.118;19.962;2022-12-20T21:41:28;98894.91;;;-2.49;100.00
73171;BME280;61381;50.118;19.962;2022-12-20T21:46:31;98884.72;;;-2.59;100.00
73171;BME280;61381;50.118;19.962;2022-12-20T21:51:32;98870.94;;;-2.68;100.00
73171;BME280;61381;50.118;19.962;2022-12-20T21:56:33;98862.03;;;-2.74;100.00
73171;BME280;61381;50.118;19.962;2022-12-20T22:01:35;98855.34;;;-2.76;100.00
73171;BME280;61381;50.118;19.962;2022-12-20T22:06:36;98842.34;;;-2.63;100.00
73171;BME280;61381;50.118;19.962;2022-12-20T22:11:38;98828.91;;;-2.53;100.00
73171;BME280;61381;50.118;19.962;2022-12-20T22:16:40;98832.25;;;-2.66;100.00
73171;BME280;61381;50.118;19.962;2022-12-20T22:21:41;98827.50;;;-2.77;100.00
73171;BME280;61381;50.118;19.962;2022-12-20T22:26:42;98826.47;;;-3.05;100.00
73171;BME280;61381;50.118;19.962;2022-12-20T22:31:44;98824.66;;;-3.04;100.00
73171;BME280;61381;50.118;19.962;2022-12-20T22:36:45;98834.72;;;-3.08;100.00
73171;BME280;61381;50.118;19.962;2022-12-20T22:41:46;98830.31;;;-3.22;100.00
73171;BME280;61381;50.118;19.962;2022-12-20T22:46:48;98813.19;;;-3.25;100.00
73171;BME280;61381;50.118;19.962;2022-12-20T22:51:49;98815.22;;;-3.42;100.00
73171;BME280;61381;50.118;19.962;2022-12-20T22:56:50;98804.47;;;-3.68;100.00
73171;BME280;61381;50.118;19.962;2022-12-20T23:01:52;98799.91;;;-3.81;100.00
73171;BME280;61381;50.118;19.962;2022-12-20T23:06:53;98790.34;;;-3.89;100.00
73171;BME280;61381;50.118;19.962;2022-12-20T23:11:54;98787.34;;;-3.86;100.00
73171;BME280;61381;50.118;19.962;2022-12-20T23:16:56;98781.09;;;-3.70;100.00
73171;BME280;61381;50.118;19.962;2022-12-20T23:21:57;98777.38;;;-3.76;100.00
73171;BME280;61381;50.118;19.962;2022-12-20T23:26:58;98772.56;;;-3.93;100.00
73171;BME280;61381;50.118;19.962;2022-12-20T23:32:01;98770.84;;;-4.01;100.00
73171;BME280;61381;50.118;19.962;2022-12-20T23:37:01;98750.56;;;-3.99;100.00
73171;BME280;61381;50.118;19.962;2022-12-20T23:42:02;98754.09;;;-4.07;100.00
73171;BME280;61381;50.118;19.962;2022-12-20T23:47:05;98766.25;;;-3.99;100.00
73171;BME280;61381;50.118;19.962;2022-12-20T23:52:06;98759.13;;;-3.90;100.00
73171;BME280;61381;50.118;19.962;2022-12-20T23:57:07;98751.28;;;-3.90;100.00
